Time;durP1;ratioP1;P1;durP2;ratioP2;P2;SDS_P1;SDS_P2;PMS_P1;PMS_P2;Temp;Humidity;BMP_temperature;BMP_pressure;BME280_temperature;BME280_humidity;BME280_pressure;Samples;Min_cycle;Max_cycle;Signal;HPM_P1;HPM_P2
2023/10/13 00:00:40;;;;;;;3.77;2.23;;;;;;;;;;5096336;28;20933;-61
2023/10/13 00:03:14;;;;;;;3.20;2.50;;;;;;;;;;5096250;28;20513;-61
2023/10/13 00:05:41;;;;;;;3.27;2.43;;;;;;;;;;5096239;28;20452;-61
2023/10/13 00:08:10;;;;;;;4.53;2.67;;;;;;;;;;5095825;28;20466;-61
2023/10/13 00:10:37;;;;;;;2.63;2.20;;;;;;;;;;5096248;28;20442;-61
2023/10/13 00:13:12;;;;;;;2.87;2.47;;;;;;;;;;5096147;28;20538;-61
2023/10/13 00:15:55;;;;;;;2.13;2.03;;;;;;;;;;5096003;28;20442;-61
2023/10/13 00:18:22;;;;;;;2.13;2.03;;;;;;;;;;5095833;28;20504;-61
2023/10/13 00:20:49;;;;;;;2.90;2.00;;;;;;;;;;5095799;28;20443;-61
2023/10/13 00:23:20;;;;;;;3.97;2.50;;;;;;;;;;5095898;28;20488;-61
2023/10/13 00:25:49;;;;;;;3.10;2.30;;;;;;;;;;5095938;28;20446;-61
2023/10/13 00:28:23;;;;;;;3.47;2.40;;;;;;;;;;5095782;28;20447;-61
2023/10/13 00:30:52;;;;;;;3.07;2.80;;;;;;;;;;5095644;28;20979;-61
2023/10/13 00:33:22;;;;;;;2.53;2.07;;;;;;;;;;5095487;28;20449;-62
2023/10/13 00:35:51;;;;;;;5.00;2.40;;;;;;;;;;5095716;28;20442;-61
2023/10/13 00:38:19;;;;;;;3.37;2.70;;;;;;;;;;5095770;28;20470;-62
2023/10/13 00:40:51;;;;;;;4.60;2.57;;;;;;;;;;5095403;28;20908;-61
2023/10/13 00:43:37;;;;;;;3.40;2.40;;;;;;;;;;5095352;28;20483;-61
2023/10/13 00:46:08;;;;;;;3.30;2.80;;;;;;;;;;5095547;28;20433;-61
2023/10/13 00:48:42;;;;;;;2.57;2.37;;;;;;;;;;5095494;28;20516;-61
2023/10/13 00:51:17;;;;;;;2.50;2.30;;;;;;;;;;5095412;28;20495;-61
2023/10/13 00:53:44;;;;;;;2.53;2.33;;;;;;;;;;5095273;28;20493;-61
2023/10/13 00:56:18;;;;;;;2.83;2.63;;;;;;;;;;5095112;28;21055;-61
2023/10/13 00:58:46;;;;;;;4.73;3.23;;;;;;;;;;5095270;28;20792;-61
2023/10/13 01:01:22;;;;;;;2.50;2.30;;;;;;;;;;5095190;28;20859;-61
2023/10/13 01:03:49;;;;;;;2.83;2.43;;;;;;;;;;5095156;28;20438;-61
2023/10/13 01:06:16;;;;;;;5.77;2.50;;;;;;;;;;5094926;28;20446;-61
2023/10/13 01:08:45;;;;;;;2.43;2.23;;;;;;;;;;5094702;28;20928;-61
2023/10/13 01:11:11;;;;;;;4.63;2.43;;;;;;;;;;5094966;28;20453;-61
2023/10/13 01:13:38;;;;;;;2.37;2.17;;;;;;;;;;5094961;28;20852;-61
2023/10/13 01:16:04;;;;;;;3.50;2.60;;;;;;;;;;5094785;28;20445;-61
2023/10/13 01:18:32;;;;;;;4.70;2.50;;;;;;;;;;5094885;28;20842;-61
2023/10/13 01:20:59;;;;;;;3.23;2.93;;;;;;;;;;5094697;28;20537;-61
2023/10/13 01:23:37;;;;;;;2.70;2.50;;;;;;;;;;5094400;28;20528;-61
2023/10/13 01:26:05;;;;;;;3.03;2.47;;;;;;;;;;5094743;28;20961;-61
2023/10/13 01:28:44;;;;;;;3.53;3.00;;;;;;;;;;5094602;28;20457;-61
2023/10/13 01:31:11;;;;;;;3.17;2.87;;;;;;;;;;5094545;28;20549;-61
2023/10/13 01:33:38;;;;;;;3.37;3.07;;;;;;;;;;5094363;28;20457;-61
2023/10/13 01:36:07;;;;;;;5.80;3.50;;;;;;;;;;5094543;28;20446;-61
2023/10/13 01:38:37;;;;;;;5.47;3.40;;;;;;;;;;5094396;28;20455;-61
2023/10/13 01:41:05;;;;;;;4.50;3.53;;;;;;;;;;5094348;28;20454;-61
2023/10/13 01:43:32;;;;;;;9.13;4.13;;;;;;;;;;5094102;28;20570;-61
2023/10/13 01:45:58;;;;;;;4.93;3.67;;;;;;;;;;5094178;28;20446;-61
2023/10/13 01:48:25;;;;;;;5.73;3.90;;;;;;;;;;5093995;28;21030;-61
2023/10/13 01:50:55;;;;;;;3.93;3.57;;;;;;;;;;5093703;28;20451;-62
2023/10/13 01:53:22;;;;;;;6.43;3.90;;;;;;;;;;5093967;28;20451;-61
2023/10/13 01:55:50;;;;;;;7.30;4.30;;;;;;;;;;5093994;28;20522;-61
2023/10/13 01:58:22;;;;;;;4.83;4.37;;;;;;;;;;5093965;28;20481;-61
2023/10/13 02:00:48;;;;;;;5.57;4.10;;;;;;;;;;5093814;28;20442;-61
2023/10/13 02:03:16;;;;;;;6.47;3.60;;;;;;;;;;5093919;28;21046;-61
2023/10/13 02:05:46;;;;;;;6.27;4.00;;;;;;;;;;5093901;28;20504;-61
2023/10/13 02:08:17;;;;;;;5.47;4.20;;;;;;;;;;5093507;28;20838;-61
2023/10/13 02:10:43;;;;;;;4.57;3.40;;;;;;;;;;5093745;28;20442;-61
2023/10/13 02:13:17;;;;;;;4.27;3.97;;;;;;;;;;5093562;28;20450;-62
2023/10/13 02:15:43;;;;;;;4.60;3.70;;;;;;;;;;5093856;28;20586;-61
2023/10/13 02:18:11;;;;;;;6.57;4.27;;;;;;;;;;5093684;28;20453;-61
2023/10/13 02:20:42;;;;;;;5.03;4.30;;;;;;;;;;5093564;28;20991;-61
2023/10/13 02:23:10;;;;;;;4.33;4.00;;;;;;;;;;5093494;28;20478;-61
2023/10/13 02:25:42;;;;;;;5.63;4.63;;;;;;;;;;5093413;28;20926;-62
2023/10/13 02:28:13;;;;;;;9.03;4.67;;;;;;;;;;5093442;28;20940;-61
2023/10/13 02:30:44;;;;;;;4.97;4.57;;;;;;;;;;5093607;28;20449;-61
2023/10/13 02:33:12;;;;;;;7.13;4.70;;;;;;;;;;5093505;28;20455;-61
2023/10/13 02:35:42;;;;;;;6.57;5.03;;;;;;;;;;5093397;28;20530;-61
2023/10/13 02:38:11;;;;;;;5.33;4.90;;;;;;;;;;5093320;28;20507;-62
2023/10/13 02:40:37;;;;;;;6.77;5.20;;;;;;;;;;5093430;28;20438;-61
2023/10/13 02:43:04;;;;;;;5.67;5.17;;;;;;;;;;5093274;28;20482;-62
2023/10/13 02:45:31;;;;;;;6.03;5.20;;;;;;;;;;5093328;28;20449;-61
2023/10/13 02:48:12;;;;;;;6.60;4.83;;;;;;;;;;5093267;28;20957;-61
2023/10/13 02:50:44;;;;;;;5.70;4.63;;;;;;;;;;5093179;28;20542;-61
2023/10/13 02:53:13;;;;;;;5.93;5.33;;;;;;;;;;5093361;28;20455;-61
2023/10/13 02:55:39;;;;;;;8.10;5.27;;;;;;;;;;5093244;28;20533;-61
2023/10/13 02:58:08;;;;;;;10.00;6.47;;;;;;;;;;5093190;28;20604;-61
2023/10/13 03:00:34;;;;;;;7.87;6.00;;;;;;;;;;5093075;28;20442;-61
2023/10/13 03:03:03;;;;;;;7.13;6.43;;;;;;;;;;5094456;28;20474;-61
2023/10/13 03:05:30;;;;;;;10.57;6.30;;;;;;;;;;5097185;28;20446;-61
2023/10/13 03:07:58;;;;;;;8.50;5.90;;;;;;;;;;5097071;28;20481;-62
2023/10/13 03:10:28;;;;;;;6.13;5.53;;;;;;;;;;5097337;28;20503;-62
2023/10/13 03:12:56;;;;;;;7.50;6.70;;;;;;;;;;5097170;28;20454;-61
2023/10/13 03:15:29;;;;;;;6.57;5.43;;;;;;;;;;5097118;28;20546;-61
2023/10/13 03:17:58;;;;;;;7.80;6.70;;;;;;;;;;5096982;28;20481;-61
2023/10/13 03:20:31;;;;;;;8.30;7.23;;;;;;;;;;5096940;28;20446;-61
2023/10/13 03:22:58;;;;;;;7.20;6.60;;;;;;;;;;5097066;28;21095;-61
2023/10/13 03:25:29;;;;;;;6.53;5.87;;;;;;;;;;5096945;28;20529;-61
2023/10/13 03:28:04;;;;;;;11.83;7.53;;;;;;;;;;5096884;28;20532;-61
2023/10/13 03:30:35;;;;;;;9.03;8.23;;;;;;;;;;5096724;28;20503;-62
2023/10/13 03:33:06;;;;;;;10.47;7.97;;;;;;;;;;5096890;28;20438;-61
2023/10/13 03:35:41;;;;;;;9.53;7.83;;;;;;;;;;5096802;28;20529;-62
2023/10/13 03:38:18;;;;;;;10.00;8.00;;;;;;;;;;5096744;28;20495;-61
2023/10/13 03:41:06;;;;;;;8.20;7.20;;;;;;;;;;5096532;28;20471;-61
2023/10/13 03:43:44;;;;;;;8.50;7.07;;;;;;;;;;5096411;28;20996;-62
2023/10/13 03:46:11;;;;;;;11.17;7.40;;;;;;;;;;5096962;28;20502;-61
2023/10/13 03:48:51;;;;;;;10.43;7.90;;;;;;;;;;5096434;28;20442;-61
2023/10/13 03:51:20;;;;;;;15.77;9.47;;;;;;;;;;5096290;28;20854;-61
2023/10/13 03:53:53;;;;;;;9.23;7.60;;;;;;;;;;5096415;28;20449;-61
2023/10/13 03:56:27;;;;;;;8.43;7.23;;;;;;;;;;5096297;28;20933;-61
2023/10/13 03:58:57;;;;;;;11.67;8.80;;;;;;;;;;5096318;28;20442;-62
2023/10/13 04:01:31;;;;;;;12.47;9.47;;;;;;;;;;5096266;28;20442;-61
2023/10/13 04:04:03;;;;;;;12.27;9.03;;;;;;;;;;5096265;28;20842;-61
2023/10/13 04:06:59;;;;;;;11.10;9.10;;;;;;;;;;5096118;28;20525;-62
2023/10/13 04:13:17;;;;;;;9.80;8.80;;;;;;;;;;5096019;28;20511;-61
2023/10/13 04:15:17;;;;;;;11.50;9.30;;;;;;;;;;5095415;28;20449;-61
2023/10/13 04:17:45;;;;;;;10.13;9.13;;;;;;;;;;5095962;28;20450;-61
2023/10/13 04:28:37;;;;;;;11.93;8.80;;;;;;;;;;5088560;28;20435;-62
2023/10/13 04:31:11;;;;;;;11.30;10.10;;;;;;;;;;5095577;28;20450;-62
2023/10/13 04:33:51;;;;;;;11.00;9.90;;;;;;;;;;5095545;28;20511;-61
2023/10/13 04:36:21;;;;;;;12.47;9.50;;;;;;;;;;5095570;28;20443;-61
2023/10/13 04:39:00;;;;;;;12.53;9.47;;;;;;;;;;5095519;28;20941;-61
2023/10/13 04:41:31;;;;;;;13.07;10.97;;;;;;;;;;5095627;28;20438;-61
2023/10/13 04:44:04;;;;;;;11.80;10.60;;;;;;;;;;5095493;28;20482;-61
2023/10/13 04:47:07;;;;;;;14.17;10.50;;;;;;;;;;5095447;28;20454;-61
2023/10/13 04:49:49;;;;;;;11.37;10.17;;;;;;;;;;5095087;28;20450;-61
2023/10/13 04:52:38;;;;;;;10.80;9.70;;;;;;;;;;5095361;28;20442;-61
2023/10/13 04:58:14;;;;;;;15.30;10.37;;;;;;;;;;5046873;28;20442;-61
2023/10/13 05:00:56;;;;;;;15.50;10.70;;;;;;;;;;5095159;28;20495;-61
2023/10/13 05:44:33;;;;;;;15.50;11.87;;;;;;;;;;5087673;28;20951;-61
2023/10/13 05:45:23;;;;;;;13.60;10.57;;;;;;;;;;5053681;28;20448;-61
2023/10/13 05:48:01;;;;;;;16.27;12.40;;;;;;;;;;5053896;28;20445;-61
2023/10/13 06:29:45;;;;;;;13.93;12.23;;;;;;;;;;5076353;28;20962;-61
2023/10/13 06:32:16;;;;;;;12.70;11.37;;;;;;;;;;5093340;28;20858;-61
2023/10/13 06:34:45;;;;;;;12.73;10.10;;;;;;;;;;5093178;28;20934;-61
2023/10/13 06:37:23;;;;;;;13.40;11.03;;;;;;;;;;5092979;28;20451;-61
2023/10/13 06:39:50;;;;;;;15.17;11.17;;;;;;;;;;5093143;28;20442;-61
2023/10/13 06:42:18;;;;;;;10.20;9.20;;;;;;;;;;5093045;28;20443;-61
2023/10/13 06:44:46;;;;;;;14.73;10.43;;;;;;;;;;5093103;28;20482;-61
2023/10/13 06:47:12;;;;;;;12.83;10.60;;;;;;;;;;5093097;28;20438;-61
2023/10/13 06:49:40;;;;;;;18.20;11.20;;;;;;;;;;5093137;28;20454;-61
2023/10/13 06:52:08;;;;;;;12.13;10.93;;;;;;;;;;5093100;28;20862;-61
2023/10/13 06:54:35;;;;;;;12.00;10.00;;;;;;;;;;5092959;28;20553;-61
2023/10/13 06:57:03;;;;;;;12.50;10.70;;;;;;;;;;5093016;28;20452;-61
2023/10/13 06:59:32;;;;;;;12.27;10.77;;;;;;;;;;5093284;28;20803;-61
2023/10/13 07:02:04;;;;;;;12.00;10.00;;;;;;;;;;5092994;28;20442;-61
2023/10/13 07:04:31;;;;;;;10.50;9.47;;;;;;;;;;5092907;28;20514;-61
2023/10/13 07:07:00;;;;;;;11.20;9.80;;;;;;;;;;5092399;28;20467;-61
2023/10/13 07:09:40;;;;;;;10.70;9.67;;;;;;;;;;5092918;28;20438;-61
2023/10/13 07:12:16;;;;;;;11.13;8.97;;;;;;;;;;5092937;28;20469;-61
2023/10/13 07:14:42;;;;;;;12.20;9.50;;;;;;;;;;5092738;28;20519;-61
2023/10/13 07:17:10;;;;;;;9.87;9.00;;;;;;;;;;5092698;28;20447;-61
2023/10/13 07:19:52;;;;;;;10.53;9.53;;;;;;;;;;5092676;28;20449;-61
2023/10/13 07:22:20;;;;;;;11.10;9.50;;;;;;;;;;5092674;28;20450;-61
2023/10/13 07:24:49;;;;;;;10.20;9.30;;;;;;;;;;5092509;28;20510;-61
2023/10/13 07:27:22;;;;;;;11.77;9.67;;;;;;;;;;5092701;28;20451;-61
2023/10/13 07:29:54;;;;;;;10.30;9.23;;;;;;;;;;5092593;28;20465;-61
2023/10/13 07:32:25;;;;;;;10.90;9.80;;;;;;;;;;5092828;28;20559;-60
2023/10/13 07:34:55;;;;;;;10.83;9.43;;;;;;;;;;5092725;28;20451;-61
2023/10/13 07:37:25;;;;;;;10.43;9.30;;;;;;;;;;5092641;28;20446;-61
2023/10/13 07:39:57;;;;;;;11.57;9.87;;;;;;;;;;5092609;28;20516;-60
2023/10/13 07:42:30;;;;;;;10.33;8.50;;;;;;;;;;5092487;28;20442;-60
2023/10/13 07:44:57;;;;;;;12.63;8.73;;;;;;;;;;5092527;28;20482;-60
2023/10/13 07:47:26;;;;;;;10.10;9.20;;;;;;;;;;5092578;28;20536;-61
2023/10/13 07:49:56;;;;;;;9.10;8.20;;;;;;;;;;5095140;28;20439;-61
2023/10/13 07:52:36;;;;;;;13.80;10.43;;;;;;;;;;5096250;28;20805;-61
2023/10/13 07:55:20;;;;;;;11.13;8.43;;;;;;;;;;5096106;28;20938;-61
2023/10/13 07:57:56;;;;;;;11.83;9.27;;;;;;;;;;5096257;28;20844;-61
2023/10/13 08:00:29;;;;;;;9.47;8.67;;;;;;;;;;5096023;28;20438;-61
2023/10/13 08:03:19;;;;;;;13.23;9.00;;;;;;;;;;5095840;28;20913;-61
2023/10/13 08:05:58;;;;;;;9.83;8.70;;;;;;;;;;5096216;28;20474;-61
2023/10/13 08:08:34;;;;;;;8.93;8.03;;;;;;;;;;5095827;28;20898;-61
2023/10/13 08:11:08;;;;;;;8.30;7.50;;;;;;;;;;5096142;28;20499;-61
2023/10/13 08:13:37;;;;;;;10.73;8.40;;;;;;;;;;5095769;28;20450;-61
2023/10/13 08:16:08;;;;;;;14.37;8.00;;;;;;;;;;5084468;28;20441;-60
2023/10/13 08:18:35;;;;;;;8.53;7.33;;;;;;;;;;5075403;28;20939;-60
2023/10/13 08:21:03;;;;;;;9.67;8.77;;;;;;;;;;5075376;28;20443;-60
2023/10/13 08:26:56;;;;;;;9.07;8.17;;;;;;;;;;5075005;28;20510;-60
2023/10/13 08:32:14;;;;;;;8.97;8.00;;;;;;;;;;5051679;28;20942;-61
2023/10/13 08:35:00;;;;;;;9.00;8.10;;;;;;;;;;5095283;28;21020;-61
2023/10/13 08:37:29;;;;;;;8.20;7.40;;;;;;;;;;5095590;28;20448;-61
2023/10/13 08:40:21;;;;;;;9.23;8.30;;;;;;;;;;5087025;28;20440;-61
2023/10/13 08:43:11;;;;;;;9.93;8.10;;;;;;;;;;5074883;28;20807;-58
2023/10/13 08:45:54;;;;;;;11.10;7.43;;;;;;;;;;5074799;28;20540;-58
2023/10/13 08:48:26;;;;;;;8.83;7.20;;;;;;;;;;5074952;28;20447;-59
2023/10/13 08:50:55;;;;;;;8.07;7.27;;;;;;;;;;5074867;28;20455;-59
2023/10/13 08:53:31;;;;;;;7.63;6.87;;;;;;;;;;5074636;28;20439;-59
2023/10/13 08:56:14;;;;;;;7.10;6.50;;;;;;;;;;5074871;28;20518;-59
2023/10/13 09:01:45;;;;;;;6.50;5.90;;;;;;;;;;5066357;28;20444;-59
2023/10/13 09:04:21;;;;;;;7.60;6.63;;;;;;;;;;5074728;28;20600;-59
2023/10/13 09:07:00;;;;;;;8.00;6.70;;;;;;;;;;5074539;28;20483;-59
2023/10/13 09:09:26;;;;;;;7.57;5.93;;;;;;;;;;5073968;28;20447;-59
2023/10/13 09:12:07;;;;;;;6.73;6.00;;;;;;;;;;5074396;28;20452;-60
2023/10/13 09:14:37;;;;;;;7.80;6.10;;;;;;;;;;5074469;28;20470;-59
2023/10/13 09:17:12;;;;;;;6.70;6.10;;;;;;;;;;5074381;28;20943;-59
2023/10/13 09:19:55;;;;;;;6.33;5.80;;;;;;;;;;5074376;28;20451;-59
2023/10/13 09:22:35;;;;;;;7.80;6.20;;;;;;;;;;5074186;28;20509;-59
2023/10/13 09:25:02;;;;;;;7.37;5.50;;;;;;;;;;5074239;28;20486;-59
2023/10/13 09:27:30;;;;;;;6.37;5.60;;;;;;;;;;5074162;28;20459;-59
2023/10/13 09:30:06;;;;;;;6.40;5.60;;;;;;;;;;5074077;28;20530;-59
2023/10/13 09:32:45;;;;;;;6.47;5.73;;;;;;;;;;5073972;28;20466;-59
2023/10/13 09:35:13;;;;;;;5.40;5.00;;;;;;;;;;5073980;28;20477;-59
2023/10/13 09:37:41;;;;;;;6.67;5.53;;;;;;;;;;5073860;28;20990;-59
2023/10/13 09:40:24;;;;;;;6.10;5.60;;;;;;;;;;5073952;28;20455;-59
2023/10/13 09:42:51;;;;;;;5.63;5.00;;;;;;;;;;5073877;28;20842;-59
2023/10/13 09:45:27;;;;;;;6.87;6.20;;;;;;;;;;5073648;28;20483;-59
2023/10/13 09:47:57;;;;;;;8.03;5.30;;;;;;;;;;5073960;28;20546;-59
2023/10/13 09:50:25;;;;;;;11.33;6.50;;;;;;;;;;5073834;28;20440;-59
2023/10/13 09:52:52;;;;;;;7.50;5.30;;;;;;;;;;5073698;28;20440;-59
2023/10/13 09:55:22;;;;;;;6.50;5.90;;;;;;;;;;5073612;28;20455;-59
2023/10/13 09:57:57;;;;;;;7.57;6.03;;;;;;;;;;5073381;28;20443;-59
2023/10/13 10:00:44;;;;;;;6.23;5.63;;;;;;;;;;5073629;28;20462;-59
2023/10/13 10:03:39;;;;;;;8.00;6.43;;;;;;;;;;5073473;28;20447;-59
2023/10/13 10:06:06;;;;;;;10.87;6.10;;;;;;;;;;5078443;28;20435;-59
2023/10/13 10:08:34;;;;;;;6.13;5.63;;;;;;;;;;5092322;28;20559;-59
2023/10/13 10:11:15;;;;;;;7.13;6.27;;;;;;;;;;5093503;28;20442;-59
2023/10/13 10:13:53;;;;;;;6.10;5.40;;;;;;;;;;5080952;28;20450;-59
2023/10/13 10:16:23;;;;;;;6.50;6.00;;;;;;;;;;5091623;28;20530;-59
2023/10/13 10:19:01;;;;;;;8.43;5.33;;;;;;;;;;5093384;28;20813;-59
2023/10/13 10:21:35;;;;;;;5.83;5.30;;;;;;;;;;5093688;28;20530;-59
2023/10/13 10:24:13;;;;;;;5.77;5.30;;;;;;;;;;5093297;28;21062;-59
2023/10/13 10:26:40;;;;;;;9.67;6.27;;;;;;;;;;5093426;28;20442;-59
2023/10/13 10:29:14;;;;;;;6.70;6.20;;;;;;;;;;5093358;28;20470;-59
2023/10/13 10:31:45;;;;;;;7.63;6.60;;;;;;;;;;5093518;28;20852;-59
2023/10/13 10:34:13;;;;;;;6.60;6.00;;;;;;;;;;5082017;28;20453;-59
2023/10/13 10:36:42;;;;;;;6.70;6.17;;;;;;;;;;5083474;28;21017;-59
2023/10/13 10:39:11;;;;;;;6.17;5.67;;;;;;;;;;5082759;28;20451;-59
2023/10/13 10:41:44;;;;;;;8.13;6.30;;;;;;;;;;5081283;28;20497;-59
2023/10/13 10:44:23;;;;;;;7.43;6.93;;;;;;;;;;5082007;28;20996;-60
2023/10/13 10:46:57;;;;;;;8.03;5.80;;;;;;;;;;5083028;28;20799;-58
2023/10/13 10:49:29;;;;;;;5.83;5.33;;;;;;;;;;5093136;28;20449;-58
2023/10/13 10:52:00;;;;;;;8.60;5.70;;;;;;;;;;5092951;28;20446;-59
2023/10/13 10:54:31;;;;;;;6.63;5.50;;;;;;;;;;5092858;28;20443;-59
2023/10/13 10:57:10;;;;;;;6.43;5.93;;;;;;;;;;5093124;28;20527;-59
2023/10/13 10:59:38;;;;;;;7.07;5.83;;;;;;;;;;5093082;28;20476;-59
2023/10/13 11:02:08;;;;;;;5.97;5.43;;;;;;;;;;5092915;28;20449;-59
2023/10/13 11:04:40;;;;;;;8.43;5.77;;;;;;;;;;5092794;28;20565;-59
2023/10/13 11:07:08;;;;;;;7.10;5.60;;;;;;;;;;5092727;28;20474;-60
2023/10/13 11:09:45;;;;;;;6.70;6.00;;;;;;;;;;5092957;28;20953;-60
2023/10/13 11:12:23;;;;;;;5.90;5.13;;;;;;;;;;5092826;28;20541;-60
2023/10/13 11:15:00;;;;;;;5.47;4.97;;;;;;;;;;5092569;28;20448;-60
2023/10/13 11:17:41;;;;;;;11.63;6.00;;;;;;;;;;5092932;28;20444;-60
2023/10/13 11:20:25;;;;;;;6.37;5.77;;;;;;;;;;5092667;28;20445;-60
2023/10/13 11:22:52;;;;;;;6.10;5.60;;;;;;;;;;5092841;28;20443;-60
2023/10/13 11:25:30;;;;;;;6.53;5.93;;;;;;;;;;5087079;28;20475;-60
2023/10/13 11:27:59;;;;;;;8.83;7.33;;;;;;;;;;5094088;28;20802;-60
2023/10/13 11:30:29;;;;;;;6.50;5.70;;;;;;;;;;5096858;28;20478;-60
2023/10/13 11:33:05;;;;;;;5.50;5.10;;;;;;;;;;5096722;28;20449;-60
2023/10/13 11:35:49;;;;;;;6.80;6.07;;;;;;;;;;5096535;28;20802;-59
2023/10/13 11:38:25;;;;;;;7.57;6.07;;;;;;;;;;5096744;28;20504;-59
2023/10/13 11:41:06;;;;;;;6.50;6.00;;;;;;;;;;5096182;28;20438;-59
2023/10/13 11:43:45;;;;;;;10.50;6.00;;;;;;;;;;5096387;28;20495;-59
2023/10/13 11:46:13;;;;;;;6.67;6.07;;;;;;;;;;5096101;28;20822;-59
2023/10/13 11:48:42;;;;;;;6.53;5.47;;;;;;;;;;5096550;28;20450;-59
2023/10/13 11:51:08;;;;;;;9.53;6.03;;;;;;;;;;5096458;28;20450;-59
2023/10/13 11:53:36;;;;;;;9.23;6.00;;;;;;;;;;5096341;28;20541;-59
2023/10/13 11:56:08;;;;;;;6.53;6.03;;;;;;;;;;5096243;28;20548;-59
2023/10/13 11:58:35;;;;;;;6.47;5.80;;;;;;;;;;5096103;28;20484;-59
2023/10/13 12:01:19;;;;;;;6.80;5.70;;;;;;;;;;5096010;28;20998;-60
2023/10/13 12:06:46;;;;;;;7.30;6.00;;;;;;;;;;5096139;28;20465;-60
2023/10/13 12:09:32;;;;;;;6.93;6.10;;;;;;;;;;5095858;28;20446;-59
2023/10/13 12:12:02;;;;;;;9.63;6.40;;;;;;;;;;5095963;28;20438;-60
2023/10/13 12:14:29;;;;;;;6.10;5.60;;;;;;;;;;5095960;28;20454;-60
2023/10/13 12:17:03;;;;;;;7.13;6.00;;;;;;;;;;5095777;28;20443;-60
2023/10/13 12:19:34;;;;;;;12.03;5.90;;;;;;;;;;5095713;28;20809;-60
2023/10/13 12:22:05;;;;;;;7.40;5.73;;;;;;;;;;5095946;28;20482;-60
2023/10/13 12:24:39;;;;;;;6.77;5.63;;;;;;;;;;5095663;28;20488;-60
2023/10/13 12:27:18;;;;;;;7.70;5.90;;;;;;;;;;5095711;28;20442;-60
2023/10/13 12:29:46;;;;;;;5.50;5.00;;;;;;;;;;5095549;28;20443;-60
2023/10/13 12:32:14;;;;;;;6.50;5.90;;;;;;;;;;5095606;28;20489;-59
2023/10/13 12:35:17;;;;;;;7.77;5.07;;;;;;;;;;5095250;28;20439;-60
2023/10/13 12:38:04;;;;;;;6.30;4.97;;;;;;;;;;5095341;28;20518;-59
2023/10/13 12:49:04;;;;;;;7.73;6.27;;;;;;;;;;5095157;28;20450;-59
2023/10/13 12:51:50;;;;;;;7.80;4.80;;;;;;;;;;5095241;28;20442;-59
2023/10/13 12:54:23;;;;;;;7.63;5.43;;;;;;;;;;5095155;28;20438;-59
2023/10/13 12:56:56;;;;;;;6.87;5.00;;;;;;;;;;5095029;28;20450;-59
2023/10/13 12:59:26;;;;;;;8.03;6.00;;;;;;;;;;5094857;28;20921;-59
2023/10/13 13:01:53;;;;;;;6.57;5.30;;;;;;;;;;5095223;28;20805;-60
2023/10/13 13:04:20;;;;;;;5.53;5.00;;;;;;;;;;5094899;28;20508;-60
2023/10/13 13:06:49;;;;;;;6.33;4.63;;;;;;;;;;5094586;28;20500;-60
2023/10/13 13:09:25;;;;;;;6.37;5.10;;;;;;;;;;5094720;28;20442;-59
2023/10/13 13:11:52;;;;;;;8.23;5.90;;;;;;;;;;5094966;28;20438;-59
2023/10/13 13:14:19;;;;;;;9.33;4.70;;;;;;;;;;5094865;28;20469;-59
2023/10/13 13:16:48;;;;;;;8.17;5.67;;;;;;;;;;5094881;28;20950;-59
2023/10/13 13:19:24;;;;;;;8.80;5.00;;;;;;;;;;5094664;28;20439;-59
2023/10/13 13:21:52;;;;;;;7.60;5.33;;;;;;;;;;5094613;28;20937;-59
2023/10/13 13:24:19;;;;;;;5.83;4.97;;;;;;;;;;5094330;28;20441;-59
2023/10/13 13:26:48;;;;;;;11.07;6.17;;;;;;;;;;5094720;28;20829;-59
2023/10/13 13:29:16;;;;;;;13.20;5.03;;;;;;;;;;5094103;28;20886;-59
2023/10/13 13:31:44;;;;;;;7.97;5.37;;;;;;;;;;5094061;28;20446;-59
2023/10/13 13:34:12;;;;;;;10.43;5.27;;;;;;;;;;5094274;28;20451;-59
2023/10/13 13:36:43;;;;;;;10.33;5.13;;;;;;;;;;5094180;28;20872;-59
2023/10/13 13:39:17;;;;;;;11.33;5.67;;;;;;;;;;5094386;28;20495;-60
2023/10/13 13:41:44;;;;;;;12.50;5.60;;;;;;;;;;5094210;28;20435;-61
2023/10/13 13:44:14;;;;;;;11.53;5.13;;;;;;;;;;5094133;28;20541;-60
2023/10/13 13:46:42;;;;;;;6.00;4.73;;;;;;;;;;5093461;28;21035;-60
2023/10/13 13:49:17;;;;;;;7.20;5.30;;;;;;;;;;5093969;28;20447;-60
2023/10/13 13:51:51;;;;;;;8.00;4.53;;;;;;;;;;5094203;28;20454;-60
2023/10/13 13:54:19;;;;;;;6.80;5.33;;;;;;;;;;5093919;28;20442;-60
2023/10/13 13:56:46;;;;;;;6.70;4.53;;;;;;;;;;5093963;28;20447;-61
2023/10/13 13:59:15;;;;;;;7.80;5.60;;;;;;;;;;5093985;28;20553;-60
2023/10/13 14:01:44;;;;;;;5.10;4.70;;;;;;;;;;5093726;28;20795;-60
2023/10/13 14:04:11;;;;;;;10.50;5.30;;;;;;;;;;5094007;28;20443;-60
2023/10/13 14:06:38;;;;;;;10.70;5.20;;;;;;;;;;5093649;28;20561;-60
2023/10/13 14:09:14;;;;;;;5.67;5.07;;;;;;;;;;5093895;28;20449;-60
2023/10/13 14:14:33;;;;;;;6.30;4.87;;;;;;;;;;5093704;28;20937;-60
2023/10/13 14:17:06;;;;;;;7.57;5.20;;;;;;;;;;5093728;28;20447;-60
2023/10/13 14:19:33;;;;;;;7.63;5.20;;;;;;;;;;5093610;28;20442;-60
2023/10/13 14:22:06;;;;;;;6.67;4.60;;;;;;;;;;5093488;28;20447;-60
2023/10/13 14:24:34;;;;;;;8.90;5.10;;;;;;;;;;5093390;28;20447;-60
2023/10/13 14:27:08;;;;;;;8.03;4.90;;;;;;;;;;5093597;28;20525;-60
2023/10/13 14:29:39;;;;;;;7.77;4.37;;;;;;;;;;5093630;28;20545;-60
2023/10/13 14:32:07;;;;;;;8.77;4.53;;;;;;;;;;5093317;28;20448;-60
2023/10/13 14:34:35;;;;;;;7.17;4.70;;;;;;;;;;5093414;28;20446;-60
2023/10/13 14:37:04;;;;;;;8.23;4.80;;;;;;;;;;5093220;28;20458;-60
2023/10/13 14:39:34;;;;;;;5.83;5.10;;;;;;;;;;5093436;28;20481;-60
2023/10/13 14:42:04;;;;;;;6.80;4.73;;;;;;;;;;5093625;28;20500;-60
2023/10/13 14:44:31;;;;;;;10.33;5.83;;;;;;;;;;5093268;28;20447;-60
2023/10/13 14:46:57;;;;;;;9.40;4.50;;;;;;;;;;5093154;28;20478;-60
2023/10/13 14:49:24;;;;;;;7.50;4.97;;;;;;;;;;5093102;28;20537;-60
2023/10/13 14:51:54;;;;;;;8.80;5.10;;;;;;;;;;5092994;28;20449;-60
2023/10/13 14:54:32;;;;;;;8.10;5.30;;;;;;;;;;5093118;28;20447;-60
2023/10/13 14:56:59;;;;;;;12.33;4.97;;;;;;;;;;5092964;28;20938;-60
2023/10/13 14:59:32;;;;;;;10.53;5.33;;;;;;;;;;5092964;28;20513;-60
2023/10/13 15:01:59;;;;;;;9.90;5.77;;;;;;;;;;5092975;28;20453;-60
2023/10/13 15:04:28;;;;;;;6.17;5.00;;;;;;;;;;5093073;28;20446;-60
2023/10/13 15:06:55;;;;;;;9.77;5.30;;;;;;;;;;5092796;28;20486;-60
2023/10/13 15:09:24;;;;;;;8.50;5.40;;;;;;;;;;5093052;28;20453;-60
2023/10/13 15:11:53;;;;;;;9.70;5.43;;;;;;;;;;5092903;28;20446;-60
2023/10/13 15:14:22;;;;;;;6.93;4.87;;;;;;;;;;5092782;28;20929;-60
2023/10/13 15:16:52;;;;;;;6.67;5.27;;;;;;;;;;5093076;28;20443;-59
2023/10/13 15:19:19;;;;;;;8.40;5.63;;;;;;;;;;5092993;28;20522;-60
2023/10/13 15:21:49;;;;;;;7.00;4.97;;;;;;;;;;5092939;28;20442;-60
2023/10/13 15:24:17;;;;;;;8.47;5.47;;;;;;;;;;5092866;28;20532;-60
2023/10/13 15:26:47;;;;;;;8.80;5.27;;;;;;;;;;5092731;28;20524;-60
2023/10/13 15:29:16;;;;;;;14.03;5.67;;;;;;;;;;5092731;28;20449;-60
2023/10/13 15:31:54;;;;;;;8.23;5.67;;;;;;;;;;5092937;28;20961;-60
2023/10/13 15:34:23;;;;;;;8.43;5.50;;;;;;;;;;5092814;28;20450;-60
2023/10/13 15:36:52;;;;;;;8.23;5.67;;;;;;;;;;5092684;28;20448;-60
2023/10/13 15:39:23;;;;;;;9.37;4.93;;;;;;;;;;5092674;28;20496;-60
2023/10/13 15:41:52;;;;;;;11.53;5.90;;;;;;;;;;5092952;28;20974;-60
2023/10/13 15:44:20;;;;;;;9.13;6.10;;;;;;;;;;5092537;28;20948;-60
2023/10/13 15:46:49;;;;;;;13.57;6.50;;;;;;;;;;5092485;28;20540;-60
2023/10/13 15:49:16;;;;;;;8.97;6.13;;;;;;;;;;5092537;28;20443;-60
2023/10/13 15:51:44;;;;;;;10.60;5.37;;;;;;;;;;5092531;28;20442;-60
2023/10/13 15:54:15;;;;;;;12.10;5.53;;;;;;;;;;5092432;28;20451;-60
2023/10/13 15:56:43;;;;;;;6.90;5.20;;;;;;;;;;5092552;28;20446;-60
2023/10/13 15:59:10;;;;;;;10.50;5.80;;;;;;;;;;5092597;28;20447;-60
2023/10/13 16:01:38;;;;;;;9.30;5.63;;;;;;;;;;5092531;28;20951;-60
2023/10/13 16:04:10;;;;;;;12.90;5.70;;;;;;;;;;5092405;28;20537;-60
2023/10/13 16:06:37;;;;;;;13.20;5.67;;;;;;;;;;5091979;28;20478;-60
2023/10/13 16:09:13;;;;;;;9.97;5.13;;;;;;;;;;5092576;28;20446;-61
2023/10/13 16:11:41;;;;;;;10.70;5.40;;;;;;;;;;5096169;28;20448;-60
2023/10/13 16:14:10;;;;;;;14.00;5.17;;;;;;;;;;5096102;28;20866;-60
2023/10/13 16:16:37;;;;;;;9.17;6.10;;;;;;;;;;5095789;28;20954;-60
2023/10/13 16:19:05;;;;;;;10.27;5.63;;;;;;;;;;5095796;28;20480;-60
2023/10/13 16:21:33;;;;;;;9.17;5.10;;;;;;;;;;5096089;28;20544;-60
2023/10/13 16:24:00;;;;;;;6.17;5.30;;;;;;;;;;5095850;28;20442;-60
2023/10/13 16:26:30;;;;;;;10.50;6.93;;;;;;;;;;5095660;28;20482;-60
2023/10/13 16:28:58;;;;;;;8.37;6.17;;;;;;;;;;5095656;28;20442;-60
2023/10/13 16:31:27;;;;;;;11.77;7.57;;;;;;;;;;5095566;28;20443;-60
2023/10/13 16:33:58;;;;;;;10.50;6.87;;;;;;;;;;5095496;28;20442;-60
2023/10/13 16:36:25;;;;;;;12.30;6.20;;;;;;;;;;5095667;28;20447;-60
2023/10/13 16:38:57;;;;;;;5.87;5.23;;;;;;;;;;5095664;28;20446;-59
2023/10/13 16:41:24;;;;;;;6.20;4.40;;;;;;;;;;5095432;28;20469;-59
2023/10/13 16:43:52;;;;;;;8.43;5.93;;;;;;;;;;5095438;28;20445;-59
2023/10/13 16:46:19;;;;;;;10.13;5.70;;;;;;;;;;5095114;28;20549;-59
2023/10/13 16:48:48;;;;;;;6.10;5.50;;;;;;;;;;5095355;28;20451;-60
2023/10/13 16:51:15;;;;;;;8.43;5.60;;;;;;;;;;5095377;28;20442;-59
2023/10/13 16:53:46;;;;;;;10.50;6.07;;;;;;;;;;5095326;28;20469;-59
2023/10/13 16:56:13;;;;;;;13.03;6.67;;;;;;;;;;5095151;28;20485;-60
2023/10/13 16:58:44;;;;;;;7.00;5.80;;;;;;;;;;5095037;28;20537;-61
2023/10/13 17:01:12;;;;;;;8.33;7.07;;;;;;;;;;5095369;28;20471;-60